sensor_id;sensor_type;location;lat;lon;timestamp;pressure;altitude;pressure_sealevel;temperature;humidity
64632;BME280;58358;50.936;0.246;2023-02-15T00:01:34;102131.41;;;2.22;62.26
64632;BME280;58358;50.936;0.246;2023-02-15T00:03:59;102131.53;;;2.68;60.38
64632;BME280;58358;50.936;0.246;2023-02-15T00:06:24;102136.25;;;2.37;62.05
64632;BME280;58358;50.936;0.246;2023-02-15T00:08:50;102129.83;;;1.79;59.33
64632;BME280;58358;50.936;0.246;2023-02-15T00:11:17;102121.07;;;3.62;56.07
64632;BME280;58358;50.936;0.246;2023-02-15T00:13:42;102121.19;;;3.49;57.39
64632;BME280;58358;50.936;0.246;2023-02-15T00:16:08;102127.42;;;3.20;58.65
64632;BME280;58358;50.936;0.246;2023-02-15T00:18:32;102125.21;;;2.00;62.13
64632;BME280;58358;50.936;0.246;2023-02-15T00:20:57;102127.83;;;2.30;61.67
64632;BME280;58358;50.936;0.246;2023-02-15T00:23:22;102118.48;;;1.93;62.71
64632;BME280;58358;50.936;0.246;2023-02-15T00:25:48;102114.58;;;2.66;59.34
64632;BME280;58358;50.936;0.246;2023-02-15T00:28:13;102109.43;;;2.05;62.79
64632;BME280;58358;50.936;0.246;2023-02-15T00:30:38;102104.30;;;2.55;62.10
64632;BME280;58358;50.936;0.246;2023-02-15T00:33:03;102096.98;;;2.59;61.20
64632;BME280;58358;50.936;0.246;2023-02-15T00:35:29;102091.36;;;3.23;59.86
64632;BME280;58358;50.936;0.246;2023-02-15T00:37:56;102088.42;;;1.93;61.11
64632;BME280;58358;50.936;0.246;2023-02-15T00:40:20;102083.12;;;2.69;61.64
64632;BME280;58358;50.936;0.246;2023-02-15T00:42:46;102079.22;;;2.88;59.61
64632;BME280;58358;50.936;0.246;2023-02-15T00:45:12;102080.75;;;2.32;61.10
64632;BME280;58358;50.936;0.246;2023-02-15T00:47:37;102075.01;;;3.20;58.86
64632;BME280;58358;50.936;0.246;2023-02-15T00:50:03;102074.18;;;2.33;61.07
64632;BME280;58358;50.936;0.246;2023-02-15T00:52:28;102074.90;;;2.77;60.73
64632;BME280;58358;50.936;0.246;2023-02-15T00:54:53;102076.89;;;1.08;64.77
64632;BME280;58358;50.936;0.246;2023-02-15T00:57:19;102083.62;;;2.42;62.53
64632;BME280;58358;50.936;0.246;2023-02-15T00:59:44;102076.16;;;2.11;61.03
64632;BME280;58358;50.936;0.246;2023-02-15T01:02:12;102074.96;;;1.80;61.57
64632;BME280;58358;50.936;0.246;2023-02-15T01:04:35;102074.24;;;2.02;62.88
64632;BME280;58358;50.936;0.246;2023-02-15T01:07:00;102071.99;;;2.03;61.92
64632;BME280;58358;50.936;0.246;2023-02-15T01:09:25;102065.16;;;2.73;59.26
64632;BME280;58358;50.936;0.246;2023-02-15T01:11:51;102064.18;;;2.43;60.35
64632;BME280;58358;50.936;0.246;2023-02-15T01:14:17;102061.10;;;2.96;59.78
64632;BME280;58358;50.936;0.246;2023-02-15T01:16:42;102063.78;;;2.51;60.09
64632;BME280;58358;50.936;0.246;2023-02-15T01:19:08;102056.65;;;3.07;59.31
64632;BME280;58358;50.936;0.246;2023-02-15T01:21:34;102053.35;;;3.06;58.07
64632;BME280;58358;50.936;0.246;2023-02-15T01:23:59;102053.26;;;2.09;61.39
64632;BME280;58358;50.936;0.246;2023-02-15T01:26:24;102052.53;;;2.48;61.26
64632;BME280;58358;50.936;0.246;2023-02-15T01:28:49;102051.22;;;2.30;60.57
64632;BME280;58358;50.936;0.246;2023-02-15T01:31:17;102046.01;;;2.98;58.62
64632;BME280;58358;50.936;0.246;2023-02-15T01:33:41;102046.22;;;2.17;60.60
64632;BME280;58358;50.936;0.246;2023-02-15T01:36:06;102041.77;;;2.77;59.79
64632;BME280;58358;50.936;0.246;2023-02-15T01:38:32;102038.16;;;2.33;61.92
64632;BME280;58358;50.936;0.246;2023-02-15T01:40:57;102032.85;;;1.33;63.58
64632;BME280;58358;50.936;0.246;2023-02-15T01:45:49;102023.92;;;2.52;60.85
64632;BME280;58358;50.936;0.246;2023-02-15T01:48:20;102020.48;;;2.94;59.48
64632;BME280;58358;50.936;0.246;2023-02-15T01:50:41;102023.76;;;2.21;59.27
64632;BME280;58358;50.936;0.246;2023-02-15T01:53:08;102021.93;;;2.51;60.76
64632;BME280;58358;50.936;0.246;2023-02-15T01:55:34;102023.20;;;2.93;58.58
64632;BME280;58358;50.936;0.246;2023-02-15T01:57:54;102023.71;;;2.73;59.65
64632;BME280;58358;50.936;0.246;2023-02-15T02:00:20;102019.23;;;2.97;58.99
64632;BME280;58358;50.936;0.246;2023-02-15T09:55:43;101882.54;;;7.23;63.18
64632;BME280;58358;50.936;0.246;2023-02-15T09:58:05;101882.10;;;7.25;64.79
64632;BME280;58358;50.936;0.246;2023-02-15T10:00:28;101880.48;;;6.00;66.86
64632;BME280;58358;50.936;0.246;2023-02-15T10:05:26;101881.02;;;6.66;66.10
64632;BME280;58358;50.936;0.246;2023-02-15T10:07:54;101883.14;;;7.39;64.41
64632;BME280;58358;50.936;0.246;2023-02-15T10:10:17;101886.71;;;7.29;65.29
64632;BME280;58358;50.936;0.246;2023-02-15T10:12:45;101885.91;;;7.41;66.34
64632;BME280;58358;50.936;0.246;2023-02-15T10:15:15;101887.88;;;7.34;66.81
64632;BME280;58358;50.936;0.246;2023-02-15T10:17:38;101883.36;;;7.35;67.63
64632;BME280;58358;50.936;0.246;2023-02-15T10:19:59;101881.45;;;7.78;66.45
64632;BME280;58358;50.936;0.246;2023-02-15T10:22:22;101875.55;;;8.17;64.95
64632;BME280;58358;50.936;0.246;2023-02-15T10:27:07;101872.32;;;7.85;65.92
64632;BME280;58358;50.936;0.246;2023-02-15T10:29:34;101873.19;;;7.78;69.18
64632;BME280;58358;50.936;0.246;2023-02-15T10:32:09;101870.78;;;8.95;65.58
64632;BME280;58358;50.936;0.246;2023-02-15T10:34:26;101868.53;;;8.95;65.03
64632;BME280;58358;50.936;0.246;2023-02-15T10:36:58;101867.63;;;8.62;64.50
64632;BME280;58358;50.936;0.246;2023-02-15T10:39:16;101873.18;;;9.01;64.93
64632;BME280;58358;50.936;0.246;2023-02-15T10:41:46;101871.37;;;9.76;62.91
64632;BME280;58358;50.936;0.246;2023-02-15T10:44:14;101871.27;;;9.63;63.14
64632;BME280;58358;50.936;0.246;2023-02-15T10:46:40;101864.08;;;8.80;65.52
64632;BME280;58358;50.936;0.246;2023-02-15T10:49:06;101868.35;;;8.56;65.81
64632;BME280;58358;50.936;0.246;2023-02-15T10:51:26;101876.65;;;7.72;68.90
64632;BME280;58358;50.936;0.246;2023-02-15T10:56:17;101862.28;;;9.09;65.55
64632;BME280;58358;50.936;0.246;2023-02-15T10:58:53;101866.18;;;8.83;64.27
64632;BME280;58358;50.936;0.246;2023-02-15T11:01:13;101862.13;;;9.89;61.84
64632;BME280;58358;50.936;0.246;2023-02-15T11:03:37;101864.78;;;8.78;62.24
64632;BME280;58358;50.936;0.246;2023-02-15T11:06:00;101855.33;;;7.23;66.39
64632;BME280;58358;50.936;0.246;2023-02-15T11:08:17;101853.29;;;8.25;66.89
64632;BME280;58358;50.936;0.246;2023-02-15T11:10:45;101850.97;;;9.05;63.29
64632;BME280;58358;50.936;0.246;2023-02-15T11:13:15;101854.45;;;8.73;63.10
64632;BME280;58358;50.936;0.246;2023-02-15T11:15:35;101857.28;;;8.13;66.00
64632;BME280;58358;50.936;0.246;2023-02-15T11:18:10;101854.93;;;7.74;67.06
64632;BME280;58358;50.936;0.246;2023-02-15T11:20:28;101856.17;;;8.04;66.33
64632;BME280;58358;50.936;0.246;2023-02-15T11:22:50;101849.73;;;9.09;64.94
64632;BME280;58358;50.936;0.246;2023-02-15T11:25:18;101857.40;;;7.91;67.15
64632;BME280;58358;50.936;0.246;2023-02-15T11:30:14;101862.80;;;7.68;67.84
64632;BME280;58358;50.936;0.246;2023-02-15T11:32:33;101859.63;;;8.07;66.54
64632;BME280;58358;50.936;0.246;2023-02-15T11:35:10;101857.03;;;8.04;67.28
64632;BME280;58358;50.936;0.246;2023-02-15T11:37:35;101855.35;;;7.37;68.32
64632;BME280;58358;50.936;0.246;2023-02-15T11:39:52;101849.34;;;8.31;65.97
64632;BME280;58358;50.936;0.246;2023-02-15T11:42:20;101849.00;;;7.77;66.77
64632;BME280;58358;50.936;0.246;2023-02-15T11:44:43;101844.64;;;7.06;68.23
64632;BME280;58358;50.936;0.246;2023-02-15T11:47:09;101836.17;;;7.49;69.33
64632;BME280;58358;50.936;0.246;2023-02-15T11:49:31;101829.65;;;7.49;69.17
64632;BME280;58358;50.936;0.246;2023-02-15T11:51:56;101822.98;;;8.13;67.21
64632;BME280;58358;50.936;0.246;2023-02-15T11:54:26;101827.50;;;8.89;64.54
64632;BME280;58358;50.936;0.246;2023-02-15T11:56:46;101826.95;;;8.62;63.88
64632;BME280;58358;50.936;0.246;2023-02-15T11:59:16;101828.62;;;8.38;65.09
64632;BME280;58358;50.936;0.246;2023-02-15T12:01:42;101823.94;;;8.06;65.35
64632;BME280;58358;50.936;0.246;2023-02-15T12:04:06;101821.31;;;8.10;65.13
64632;BME280;58358;50.936;0.246;2023-02-15T12:06:30;101819.75;;;9.07;62.29
64632;BME280;58358;50.936;0.246;2023-02-15T12:09:02;101814.06;;;9.45;59.91
64632;BME280;58358;50.936;0.246;2023-02-15T12:11:25;101815.26;;;9.61;58.31
64632;BME280;58358;50.936;0.246;2023-02-15T12:16:12;101807.12;;;9.11;59.28
64632;BME280;58358;50.936;0.246;2023-02-15T12:18:37;101794.90;;;9.95;57.98
64632;BME280;58358;50.936;0.246;2023-02-15T12:21:03;101790.35;;;9.87;58.42
64632;BME280;58358;50.936;0.246;2023-02-15T12:23:27;101776.98;;;9.71;57.97
64632;BME280;58358;50.936;0.246;2023-02-15T12:25:53;101774.27;;;9.35;59.01
64632;BME280;58358;50.936;0.246;2023-02-15T12:28:24;101768.02;;;9.99;57.84
64632;BME280;58358;50.936;0.246;2023-02-15T12:30:43;101773.69;;;8.76;60.41
64632;BME280;58358;50.936;0.246;2023-02-15T12:33:14;101778.07;;;9.28;58.67
64632;BME280;58358;50.936;0.246;2023-02-15T12:35:35;101779.84;;;9.70;58.62
64632;BME280;58358;50.936;0.246;2023-02-15T12:38:03;101784.09;;;9.79;58.98
64632;BME280;58358;50.936;0.246;2023-02-15T12:40:27;101783.81;;;9.15;60.74
64632;BME280;58358;50.936;0.246;2023-02-15T12:42:49;101787.18;;;9.42;61.43
64632;BME280;58358;50.936;0.246;2023-02-15T12:45:23;101790.37;;;8.06;63.77
64632;BME280;58358;50.936;0.246;2023-02-15T12:47:41;101791.97;;;8.90;62.40
64632;BME280;58358;50.936;0.246;2023-02-15T12:50:11;101785.42;;;8.69;62.51
64632;BME280;58358;50.936;0.246;2023-02-15T12:52:31;101783.57;;;9.53;60.22
64632;BME280;58358;50.936;0.246;2023-02-15T12:57:25;101782.33;;;8.29;65.16
64632;BME280;58358;50.936;0.246;2023-02-15T12:59:49;101777.22;;;7.56;66.60
64632;BME280;58358;50.936;0.246;2023-02-15T13:02:20;101777.99;;;8.00;65.57
64632;BME280;58358;50.936;0.246;2023-02-15T13:04:47;101784.70;;;8.79;63.90
64632;BME280;58358;50.936;0.246;2023-02-15T13:07:04;101785.18;;;9.03;62.35
64632;BME280;58358;50.936;0.246;2023-02-15T13:09:35;101783.48;;;9.19;62.03
64632;BME280;58358;50.936;0.246;2023-02-15T13:11:55;101777.13;;;8.76;61.23
64632;BME280;58358;50.936;0.246;2023-02-15T13:14:30;101772.31;;;8.92;61.57
64632;BME280;58358;50.936;0.246;2023-02-15T13:16:47;101772.93;;;8.70;60.05
64632;BME280;58358;50.936;0.246;2023-02-15T13:19:14;101768.10;;;8.86;60.15
64632;BME280;58358;50.936;0.246;2023-02-15T13:21:39;101762.35;;;8.46;62.90
64632;BME280;58358;50.936;0.246;2023-02-15T13:24:05;101758.17;;;8.74;62.17
64632;BME280;58358;50.936;0.246;2023-02-15T13:26:31;101752.14;;;8.51;62.12
64632;BME280;58358;50.936;0.246;2023-02-15T13:28:55;101756.70;;;9.08;60.88
64632;BME280;58358;50.936;0.246;2023-02-15T13:31:20;101759.06;;;8.70;62.26
64632;BME280;58358;50.936;0.246;2023-02-15T13:33:46;101759.72;;;8.34;63.52
64632;BME280;58358;50.936;0.246;2023-02-15T13:36:14;101752.09;;;9.00;62.24
64632;BME280;58358;50.936;0.246;2023-02-15T13:38:44;101750.24;;;9.27;61.80
64632;BME280;58358;50.936;0.246;2023-02-15T13:41:03;101749.47;;;9.36;61.04
64632;BME280;58358;50.936;0.246;2023-02-15T13:43:33;101741.64;;;9.39;59.53
64632;BME280;58358;50.936;0.246;2023-02-15T13:45:58;101738.27;;;8.98;60.37
64632;BME280;58358;50.936;0.246;2023-02-15T13:48:22;101741.08;;;9.12;60.79
64632;BME280;58358;50.936;0.246;2023-02-15T13:50:54;101744.43;;;9.05;62.13
64632;BME280;58358;50.936;0.246;2023-02-15T13:53:20;101744.50;;;9.12;62.00
64632;BME280;58358;50.936;0.246;2023-02-15T13:55:38;101742.78;;;8.61;62.78
64632;BME280;58358;50.936;0.246;2023-02-15T14:00:29;101735.70;;;9.28;60.94
64632;BME280;58358;50.936;0.246;2023-02-15T14:03:04;101734.82;;;9.40;61.01
64632;BME280;58358;50.936;0.246;2023-02-15T14:05:26;101730.23;;;9.50;59.79
64632;BME280;58358;50.936;0.246;2023-02-15T14:07:50;101731.63;;;9.36;58.66
64632;BME280;58358;50.936;0.246;2023-02-15T14:10:21;101738.28;;;10.06;57.83
64632;BME280;58358;50.936;0.246;2023-02-15T14:12:42;101739.31;;;9.70;58.61
64632;BME280;58358;50.936;0.246;2023-02-15T14:15:08;101733.96;;;9.54;58.17
64632;BME280;58358;50.936;0.246;2023-02-15T14:17:28;101732.22;;;10.12;57.28
64632;BME280;58358;50.936;0.246;2023-02-15T14:19:52;101730.88;;;10.50;55.50
64632;BME280;58358;50.936;0.246;2023-02-15T14:22:19;101729.78;;;9.79;55.92
64632;BME280;58358;50.936;0.246;2023-02-15T14:24:42;101731.42;;;10.18;55.90
64632;BME280;58358;50.936;0.246;2023-02-15T14:27:14;101731.31;;;10.32;56.28
64632;BME280;58358;50.936;0.246;2023-02-15T14:29:41;101728.86;;;10.30;55.57
64632;BME280;58358;50.936;0.246;2023-02-15T14:31:57;101722.24;;;9.97;57.21
64632;BME280;58358;50.936;0.246;2023-02-15T14:34:23;101725.79;;;10.07;57.46
64632;BME280;58358;50.936;0.246;2023-02-15T14:36:45;101726.28;;;10.07;56.44
64632;BME280;58358;50.936;0.246;2023-02-15T14:39:18;101736.52;;;9.54;57.89
64632;BME280;58358;50.936;0.246;2023-02-15T14:41:42;101737.54;;;9.57;59.22
64632;BME280;58358;50.936;0.246;2023-02-15T14:44:08;101737.94;;;8.92;61.22
64632;BME280;58358;50.936;0.246;2023-02-15T14:46:31;101721.28;;;10.55;56.72
64632;BME280;58358;50.936;0.246;2023-02-15T14:48:55;101721.17;;;9.87;57.87
64632;BME280;58358;50.936;0.246;2023-02-15T14:53:43;101720.21;;;10.30;55.04
64632;BME280;58358;50.936;0.246;2023-02-15T14:56:21;101727.95;;;10.68;57.02
64632;BME280;58358;50.936;0.246;2023-02-15T14:58:35;101733.23;;;9.55;59.99
64632;BME280;58358;50.936;0.246;2023-02-15T15:01:05;101722.72;;;10.29;58.27
64632;BME280;58358;50.936;0.246;2023-02-15T15:03:26;101730.55;;;10.25;58.47
64632;BME280;58358;50.936;0.246;2023-02-15T15:05:53;101715.20;;;10.35;57.94
64632;BME280;58358;50.936;0.246;2023-02-15T15:08:25;101714.62;;;11.09;54.73
64632;BME280;58358;50.936;0.246;2023-02-15T15:10:44;101718.16;;;10.11;56.08
64632;BME280;58358;50.936;0.246;2023-02-15T15:15:44;101717.06;;;10.77;55.47
64632;BME280;58358;50.936;0.246;2023-02-15T15:18:01;101717.74;;;11.69;51.54
64632;BME280;58358;50.936;0.246;2023-02-15T15:20:39;101725.75;;;11.68;52.21
64632;BME280;58358;50.936;0.246;2023-02-15T15:27:47;101720.11;;;10.88;53.87
64632;BME280;58358;50.936;0.246;2023-02-15T15:32:35;101718.42;;;11.28;52.77
64632;BME280;58358;50.936;0.246;2023-02-15T15:35:10;101722.85;;;12.19;51.37
64632;BME280;58358;50.936;0.246;2023-02-15T15:37:36;101729.75;;;11.55;52.19
64632;BME280;58358;50.936;0.246;2023-02-15T15:40:00;101725.93;;;12.41;49.93
64632;BME280;58358;50.936;0.246;2023-02-15T15:42:28;101722.13;;;11.31;52.61
64632;BME280;58358;50.936;0.246;2023-02-15T15:44:58;101721.14;;;10.81;54.42
64632;BME280;58358;50.936;0.246;2023-02-15T15:47:24;101718.52;;;10.87;54.37
64632;BME280;58358;50.936;0.246;2023-02-15T15:49:35;101718.97;;;9.82;57.26
64632;BME280;58358;50.936;0.246;2023-02-15T15:52:01;101715.69;;;10.43;55.65
64632;BME280;58358;50.936;0.246;2023-02-15T15:54:25;101712.63;;;11.76;52.10
64632;BME280;58358;50.936;0.246;2023-02-15T15:56:52;101714.13;;;10.22;55.93
64632;BME280;58358;50.936;0.246;2023-02-15T15:59:19;101715.93;;;11.08;53.88
64632;BME280;58358;50.936;0.246;2023-02-15T16:01:42;101716.61;;;10.81;53.58
64632;BME280;58358;50.936;0.246;2023-02-15T16:04:05;101715.45;;;10.98;53.86
64632;BME280;58358;50.936;0.246;2023-02-15T16:06:33;101714.06;;;11.54;51.97
64632;BME280;58358;50.936;0.246;2023-02-15T16:08:56;101720.85;;;9.18;56.75
64632;BME280;58358;50.936;0.246;2023-02-15T16:11:24;101718.42;;;9.86;57.23
64632;BME280;58358;50.936;0.246;2023-02-15T16:13:47;101724.87;;;9.21;58.49
64632;BME280;58358;50.936;0.246;2023-02-15T16:16:13;101717.07;;;10.66;54.86
64632;BME280;58358;50.936;0.246;2023-02-15T16:18:38;101712.25;;;11.97;50.37
64632;BME280;58358;50.936;0.246;2023-02-15T16:21:03;101718.12;;;11.35;50.79
64632;BME280;58358;50.936;0.246;2023-02-15T16:26:01;101718.68;;;9.75;55.31
64632;BME280;58358;50.936;0.246;2023-02-15T16:28:19;101724.47;;;8.58;58.54
64632;BME280;58358;50.936;0.246;2023-02-15T16:30:44;101725.63;;;8.90;58.50
64632;BME280;58358;50.936;0.246;2023-02-15T16:33:11;101723.01;;;9.33;58.18
64632;BME280;58358;50.936;0.246;2023-02-15T16:35:38;101723.04;;;8.94;57.53
64632;BME280;58358;50.936;0.246;2023-02-15T16:38:02;101721.30;;;10.02;54.77
64632;BME280;58358;50.936;0.246;2023-02-15T16:40:39;101730.60;;;9.34;57.44
64632;BME280;58358;50.936;0.246;2023-02-15T16:42:56;101736.51;;;9.54;56.14
64632;BME280;58358;50.936;0.246;2023-02-15T16:45:20;101733.28;;;9.30;56.45
64632;BME280;58358;50.936;0.246;2023-02-15T16:47:47;101736.28;;;9.15;55.94
64632;BME280;58358;50.936;0.246;2023-02-15T16:50:16;101737.91;;;8.28;59.65
64632;BME280;58358;50.936;0.246;2023-02-15T16:52:35;101741.12;;;8.47;58.83
64632;BME280;58358;50.936;0.246;2023-02-15T16:55:03;101735.40;;;7.14;61.79
64632;BME280;58358;50.936;0.246;2023-02-15T16:57:29;101741.84;;;7.85;60.36
64632;BME280;58358;50.936;0.246;2023-02-15T16:59:53;101741.73;;;7.99;61.14
64632;BME280;58358;50.936;0.246;2023-02-15T17:02:19;101737.98;;;7.56;62.34
64632;BME280;58358;50.936;0.246;2023-02-15T17:04:43;101740.03;;;8.10;60.98
64632;BME280;58358;50.936;0.246;2023-02-15T17:07:17;101740.06;;;7.42;61.89
64632;BME280;58358;50.936;0.246;2023-02-15T17:09:34;101739.93;;;7.33;62.19
64632;BME280;58358;50.936;0.246;2023-02-15T17:11:59;101743.73;;;8.15;59.92
64632;BME280;58358;50.936;0.246;2023-02-15T17:14:29;101741.26;;;8.10;60.28
64632;BME280;58358;50.936;0.246;2023-02-15T17:16:50;101737.76;;;7.59;60.93
64632;BME280;58358;50.936;0.246;2023-02-15T17:19:16;101739.20;;;7.13;63.34
64632;BME280;58358;50.936;0.246;2023-02-15T17:21:43;101740.22;;;6.94;62.62
64632;BME280;58358;50.936;0.246;2023-02-15T17:24:05;101740.13;;;7.28;62.92
64632;BME280;58358;50.936;0.246;2023-02-15T17:26:32;101745.39;;;7.44;62.46
64632;BME280;58358;50.936;0.246;2023-02-15T17:28:59;101747.88;;;6.71;64.01
64632;BME280;58358;50.936;0.246;2023-02-15T17:31:24;101745.69;;;6.66;65.99
64632;BME280;58358;50.936;0.246;2023-02-15T17:33:47;101745.86;;;6.93;65.55
64632;BME280;58358;50.936;0.246;2023-02-15T17:36:13;101744.47;;;6.97;65.04
64632;BME280;58358;50.936;0.246;2023-02-15T17:38:39;101742.80;;;7.22;63.15
64632;BME280;58358;50.936;0.246;2023-02-15T17:41:04;101737.43;;;7.53;63.27
64632;BME280;58358;50.936;0.246;2023-02-15T17:43:28;101738.91;;;7.90;61.18
64632;BME280;58358;50.936;0.246;2023-02-15T17:45:54;101740.23;;;7.43;62.00
64632;BME280;58358;50.936;0.246;2023-02-15T17:48:22;101747.50;;;7.66;62.76
64632;BME280;58358;50.936;0.246;2023-02-15T17:50:45;101759.28;;;7.02;64.16
64632;BME280;58358;50.936;0.246;2023-02-15T17:53:11;101757.03;;;6.71;63.78
64632;BME280;58358;50.936;0.246;2023-02-15T17:55:36;101749.84;;;7.30;63.73
64632;BME280;58358;50.936;0.246;2023-02-15T17:58:04;101754.58;;;6.86;64.03
64632;BME280;58358;50.936;0.246;2023-02-15T18:00:27;101755.89;;;6.44;65.02
64632;BME280;58358;50.936;0.246;2023-02-15T18:02:53;101758.50;;;7.79;61.21
64632;BME280;58358;50.936;0.246;2023-02-15T18:05:18;101757.85;;;6.95;62.67
64632;BME280;58358;50.936;0.246;2023-02-15T18:07:44;101750.55;;;7.37;63.75
64632;BME280;58358;50.936;0.246;2023-02-15T18:10:13;101748.20;;;7.56;61.71
64632;BME280;58358;50.936;0.246;2023-02-15T18:12:36;101751.36;;;8.29;60.18
64632;BME280;58358;50.936;0.246;2023-02-15T18:15:00;101754.38;;;8.66;58.30
64632;BME280;58358;50.936;0.246;2023-02-15T18:17:28;101754.75;;;6.86;62.96
64632;BME280;58358;50.936;0.246;2023-02-15T18:19:51;101758.11;;;7.68;60.69
64632;BME280;58358;50.936;0.246;2023-02-15T18:22:18;101761.24;;;8.51;59.03
64632;BME280;58358;50.936;0.246;2023-02-15T18:24:44;101764.34;;;6.99;62.96
64632;BME280;58358;50.936;0.246;2023-02-15T18:27:11;101769.30;;;7.37;63.15
64632;BME280;58358;50.936;0.246;2023-02-15T18:29:33;101766.47;;;7.47;62.42
64632;BME280;58358;50.936;0.246;2023-02-15T18:32:00;101765.88;;;7.24;63.20
64632;BME280;58358;50.936;0.246;2023-02-15T18:34:26;101763.66;;;7.74;62.02
64632;BME280;58358;50.936;0.246;2023-02-15T18:36:51;101763.44;;;7.18;62.72
64632;BME280;58358;50.936;0.246;2023-02-15T18:39:25;101761.55;;;7.01;64.11
64632;BME280;58358;50.936;0.246;2023-02-15T18:41:40;101757.04;;;8.33;59.75
64632;BME280;58358;50.936;0.246;2023-02-15T18:44:10;101755.93;;;8.38;58.20
64632;BME280;58358;50.936;0.246;2023-02-15T18:46:31;101754.10;;;8.32;58.00
64632;BME280;58358;50.936;0.246;2023-02-15T18:48:56;101755.06;;;8.56;57.38
64632;BME280;58358;50.936;0.246;2023-02-15T18:51:23;101752.58;;;8.96;57.06
64632;BME280;58358;50.936;0.246;2023-02-15T18:53:49;101757.10;;;8.15;59.05
64632;BME280;58358;50.936;0.246;2023-02-15T18:56:16;101759.65;;;8.74;57.54
64632;BME280;58358;50.936;0.246;2023-02-15T18:58:39;101752.37;;;9.01;55.79
64632;BME280;58358;50.936;0.246;2023-02-15T19:01:04;101753.35;;;8.08;57.34
64632;BME280;58358;50.936;0.246;2023-02-15T19:03:30;101754.88;;;8.64;56.58
64632;BME280;58358;50.936;0.246;2023-02-15T19:05:55;101761.59;;;8.23;58.28
64632;BME280;58358;50.936;0.246;2023-02-15T19:08:22;101762.89;;;7.85;58.12
64632;BME280;58358;50.936;0.246;2023-02-15T19:10:47;101768.44;;;8.30;56.45
64632;BME280;58358;50.936;0.246;2023-02-15T19:13:13;101770.09;;;9.37;54.61
64632;BME280;58358;50.936;0.246;2023-02-15T19:15:38;101767.72;;;9.40;54.19
64632;BME280;58358;50.936;0.246;2023-02-15T19:18:03;101764.75;;;9.09;54.40
64632;BME280;58358;50.936;0.246;2023-02-15T19:20:31;101763.62;;;9.22;53.79
64632;BME280;58358;50.936;0.246;2023-02-15T19:22:55;101767.95;;;8.90;55.44
64632;BME280;58358;50.936;0.246;2023-02-15T19:25:23;101760.71;;;9.61;53.25
64632;BME280;58358;50.936;0.246;2023-02-15T19:27:45;101766.40;;;8.69;54.31
64632;BME280;58358;50.936;0.246;2023-02-15T19:30:14;101757.46;;;9.69;53.18
64632;BME280;58358;50.936;0.246;2023-02-15T19:32:35;101761.63;;;9.37;53.34
64632;BME280;58358;50.936;0.246;2023-02-15T19:35:01;101761.84;;;9.74;52.43
64632;BME280;58358;50.936;0.246;2023-02-15T19:37:32;101764.82;;;10.00;52.29
64632;BME280;58358;50.936;0.246;2023-02-15T19:39:52;101769.42;;;6.53;59.57
64632;BME280;58358;50.936;0.246;2023-02-15T19:42:20;101767.42;;;9.37;54.65
64632;BME280;58358;50.936;0.246;2023-02-15T19:44:43;101766.30;;;9.19;53.92
64632;BME280;58358;50.936;0.246;2023-02-15T19:47:10;101769.76;;;8.49;56.05
64632;BME280;58358;50.936;0.246;2023-02-15T19:49:33;101764.23;;;9.42;53.64
64632;BME280;58358;50.936;0.246;2023-02-15T19:51:59;101752.88;;;9.85;52.29
64632;BME280;58358;50.936;0.246;2023-02-15T19:54:28;101757.88;;;8.81;54.11
64632;BME280;58358;50.936;0.246;2023-02-15T19:56:50;101748.99;;;8.10;56.00
64632;BME280;58358;50.936;0.246;2023-02-15T19:59:23;101737.57;;;8.45;55.27
64632;BME280;58358;50.936;0.246;2023-02-15T20:01:43;101739.37;;;8.63;55.40
64632;BME280;58358;50.936;0.246;2023-02-15T20:04:07;101738.38;;;8.93;53.95
64632;BME280;58358;50.936;0.246;2023-02-15T20:06:32;101742.24;;;8.71;55.22
64632;BME280;58358;50.936;0.246;2023-02-15T20:08:58;101745.52;;;6.73;59.12
64632;BME280;58358;50.936;0.246;2023-02-15T20:11:24;101752.41;;;8.28;56.58
64632;BME280;58358;50.936;0.246;2023-02-15T20:13:49;101757.67;;;7.09;57.91
64632;BME280;58358;50.936;0.246;2023-02-15T20:16:14;101764.14;;;8.03;58.43
64632;BME280;58358;50.936;0.246;2023-02-15T20:18:40;101773.92;;;8.32;57.77
64632;BME280;58358;50.936;0.246;2023-02-15T20:21:08;101774.29;;;7.46;58.95
64632;BME280;58358;50.936;0.246;2023-02-15T20:23:36;101767.07;;;7.24;60.25
64632;BME280;58358;50.936;0.246;2023-02-15T20:25:57;101773.39;;;7.43;60.02
64632;BME280;58358;50.936;0.246;2023-02-15T20:28:23;101768.44;;;7.19;60.16
64632;BME280;58358;50.936;0.246;2023-02-15T20:30:47;101771.53;;;6.63;62.08
64632;BME280;58358;50.936;0.246;2023-02-15T20:33:12;101766.98;;;7.38;59.71
64632;BME280;58358;50.936;0.246;2023-02-15T20:35:37;101771.49;;;6.59;61.27
64632;BME280;58358;50.936;0.246;2023-02-15T20:38:03;101766.76;;;4.91;65.18
64632;BME280;58358;50.936;0.246;2023-02-15T20:40:29;101772.17;;;5.99;62.78
64632;BME280;58358;50.936;0.246;2023-02-15T20:42:53;101777.76;;;6.53;62.92
64632;BME280;58358;50.936;0.246;2023-02-15T20:45:20;101770.94;;;7.70;60.41
64632;BME280;58358;50.936;0.246;2023-02-15T20:47:43;101768.32;;;7.32;59.84
64632;BME280;58358;50.936;0.246;2023-02-15T20:50:09;101764.99;;;7.13;60.99
64632;BME280;58358;50.936;0.246;2023-02-15T20:52:35;101768.49;;;8.24;58.76
64632;BME280;58358;50.936;0.246;2023-02-15T20:55:01;101766.68;;;8.76;57.15
64632;BME280;58358;50.936;0.246;2023-02-15T20:57:26;101765.97;;;9.03;55.98
64632;BME280;58358;50.936;0.246;2023-02-15T20:59:52;101760.93;;;9.05;55.32
64632;BME280;58358;50.936;0.246;2023-02-15T21:02:19;101763.62;;;8.85;56.30
64632;BME280;58358;50.936;0.246;2023-02-15T21:04:42;101763.72;;;9.16;55.68
64632;BME280;58358;50.936;0.246;2023-02-15T21:07:11;101764.23;;;8.82;56.79
64632;BME280;58358;50.936;0.246;2023-02-15T21:09:32;101759.12;;;8.45;58.61
64632;BME280;58358;50.936;0.246;2023-02-15T21:11:58;101763.12;;;8.65;58.38
64632;BME280;58358;50.936;0.246;2023-02-15T21:14:25;101765.93;;;7.39;65.80
64632;BME280;58358;50.936;0.246;2023-02-15T21:16:49;101765.78;;;8.39;64.19